createdAt,value
2023-07-24T00:00:41.681Z,3.10
2023-07-24T00:03:29.844Z,2.50
2023-07-24T00:06:01.049Z,2.80
2023-07-24T00:08:29.184Z,2.80
2023-07-24T00:10:57.201Z,3.40
2023-07-24T00:13:25.356Z,2.80
2023-07-24T00:15:53.415Z,2.60
2023-07-24T00:18:21.593Z,3.10
2023-07-24T00:20:49.758Z,3.30
2023-07-24T00:23:18.165Z,3.50
2023-07-24T00:25:46.315Z,3.20
2023-07-24T00:28:14.214Z,3.30
2023-07-24T00:30:43.665Z,3.50
2023-07-24T00:33:12.766Z,3.70
2023-07-24T00:35:40.866Z,3.60
2023-07-24T00:38:09.743Z,4.20
2023-07-24T00:40:37.636Z,4.20
2023-07-24T00:43:06.910Z,3.10
2023-07-24T00:45:37.567Z,3.10
2023-07-24T00:48:06.523Z,3.00
2023-07-24T00:50:36.350Z,2.70
2023-07-24T00:53:05.735Z,2.80
2023-07-24T00:55:33.998Z,3.00
2023-07-24T00:58:04.317Z,3.20
2023-07-24T01:00:33.033Z,2.80
2023-07-24T01:03:01.571Z,4.30
2023-07-24T01:05:30.996Z,2.60
2023-07-24T01:07:59.091Z,2.90
2023-07-24T01:10:27.479Z,2.90
2023-07-24T01:13:20.136Z,2.80
2023-07-24T01:16:14.420Z,2.70
2023-07-24T01:18:45.636Z,2.90
2023-07-24T01:21:18.131Z,2.50
2023-07-24T01:24:16.302Z,2.50
2023-07-24T01:26:45.185Z,2.70
2023-07-24T01:29:13.148Z,2.60
2023-07-24T01:31:41.171Z,2.80
2023-07-24T01:34:09.192Z,2.40
2023-07-24T01:36:37.637Z,3.10
2023-07-24T01:39:06.571Z,2.60
2023-07-24T01:41:34.565Z,2.80
2023-07-24T01:44:02.758Z,2.80
2023-07-24T01:46:30.930Z,2.90
2023-07-24T01:48:59.638Z,2.70
2023-07-24T01:51:27.830Z,2.60
2023-07-24T01:53:55.861Z,3.00
2023-07-24T01:56:23.959Z,2.80
2023-07-24T01:58:52.068Z,2.50
2023-07-24T02:01:20.239Z,2.60
2023-07-24T02:03:48.279Z,2.70
2023-07-24T02:06:16.364Z,2.50
2023-07-24T02:08:49.859Z,2.20
2023-07-24T02:11:18.556Z,2.10
2023-07-24T02:13:46.681Z,2.40
2023-07-24T02:16:15.979Z,3.00
2023-07-24T02:18:44.507Z,2.50
2023-07-24T02:21:12.518Z,2.40
2023-07-24T02:23:40.660Z,3.40
2023-07-24T02:26:08.673Z,2.80
2023-07-24T02:28:36.690Z,2.80
2023-07-24T02:31:04.582Z,2.30
2023-07-24T02:33:32.920Z,2.50
2023-07-24T02:36:02.312Z,2.70
2023-07-24T02:38:30.385Z,2.80
2023-07-24T02:40:58.463Z,2.50
2023-07-24T02:43:26.841Z,2.60
2023-07-24T02:45:54.748Z,2.90
2023-07-24T02:48:24.940Z,2.70
2023-07-24T02:50:53.859Z,3.10
2023-07-24T02:53:21.806Z,2.60
2023-07-24T02:55:49.732Z,2.70
2023-07-24T02:58:17.788Z,2.50
2023-07-24T03:00:45.818Z,2.40
2023-07-24T03:03:13.921Z,3.10
2023-07-24T03:05:41.899Z,3.50
2023-07-24T03:08:09.806Z,2.80
2023-07-24T03:10:41.856Z,3.10
2023-07-24T03:13:09.811Z,3.30
2023-07-24T03:15:37.890Z,4.00
2023-07-24T03:18:06.230Z,3.70
2023-07-24T03:20:34.352Z,3.40
2023-07-24T03:23:02.259Z,3.30
2023-07-24T03:25:32.697Z,3.40
2023-07-24T03:28:00.746Z,3.30
2023-07-24T03:30:28.864Z,3.90
2023-07-24T03:32:57.964Z,3.80
2023-07-24T03:35:26.000Z,3.70
2023-07-24T03:37:53.988Z,3.40
2023-07-24T03:40:22.054Z,3.10
2023-07-24T03:42:50.191Z,2.60
2023-07-24T03:45:18.206Z,2.60
2023-07-24T03:47:46.292Z,2.60
2023-07-24T03:50:14.469Z,2.90
2023-07-24T03:52:42.626Z,2.80
2023-07-24T03:55:11.814Z,2.80
2023-07-24T03:57:39.953Z,2.80
2023-07-24T04:00:08.838Z,2.30
2023-07-24T04:02:42.990Z,2.80
2023-07-24T04:05:11.235Z,2.40
2023-07-24T04:07:39.391Z,2.90
2023-07-24T04:10:08.404Z,3.30
2023-07-24T04:12:36.704Z,3.40
2023-07-24T04:15:05.328Z,3.20
2023-07-24T04:17:33.848Z,3.00
2023-07-24T04:20:02.043Z,3.20
2023-07-24T04:22:30.090Z,3.80
2023-07-24T04:24:58.043Z,4.00
2023-07-24T04:27:26.007Z,4.80
2023-07-24T04:29:53.989Z,6.40
2023-07-24T04:32:22.212Z,5.30
2023-07-24T04:34:50.366Z,5.00
2023-07-24T04:37:18.389Z,4.90
2023-07-24T04:39:46.371Z,5.40
2023-07-24T04:42:14.335Z,4.80
2023-07-24T04:44:42.319Z,4.30
2023-07-24T04:47:10.992Z,4.90
2023-07-24T04:49:39.169Z,4.90
2023-07-24T04:52:07.140Z,4.90
2023-07-24T04:54:35.213Z,5.80
2023-07-24T04:57:03.278Z,6.20
2023-07-24T04:59:31.354Z,5.10
2023-07-24T05:01:59.485Z,5.30
2023-07-24T05:04:27.559Z,5.20
2023-07-24T05:06:55.592Z,5.50
2023-07-24T05:09:23.659Z,6.10
2023-07-24T05:11:51.690Z,6.00
2023-07-24T05:14:19.606Z,5.60
2023-07-24T05:16:47.721Z,5.30
2023-07-24T05:19:15.882Z,5.30
2023-07-24T05:21:43.984Z,5.00
2023-07-24T05:24:11.997Z,5.10
2023-07-24T05:26:40.139Z,4.60
2023-07-24T05:29:08.211Z,5.20
2023-07-24T05:31:37.490Z,5.10
2023-07-24T05:34:06.292Z,5.10
2023-07-24T05:36:34.232Z,4.00
2023-07-24T05:39:02.223Z,4.10
2023-07-24T05:41:30.236Z,4.40
2023-07-24T05:43:58.548Z,4.20
2023-07-24T05:46:26.769Z,4.50
2023-07-24T05:48:55.250Z,3.90
2023-07-24T05:51:23.653Z,4.40
2023-07-24T05:53:51.769Z,4.50
2023-07-24T05:56:20.011Z,4.30
2023-07-24T05:58:48.179Z,4.70
2023-07-24T06:01:16.187Z,4.90
2023-07-24T06:03:44.277Z,7.60
2023-07-24T06:06:12.293Z,5.00
2023-07-24T06:08:40.277Z,4.60
2023-07-24T06:11:08.444Z,4.80
2023-07-24T06:13:36.427Z,4.40
2023-07-24T06:16:04.617Z,4.50
2023-07-24T06:18:32.690Z,4.60
2023-07-24T06:21:00.617Z,4.20
2023-07-24T06:23:28.730Z,3.80
2023-07-24T06:25:56.702Z,3.90
2023-07-24T06:28:24.687Z,4.30
2023-07-24T06:30:55.820Z,4.30
2023-07-24T06:33:23.798Z,4.20
2023-07-24T06:35:52.155Z,4.60
2023-07-24T06:38:22.471Z,4.90
2023-07-24T06:40:50.506Z,4.10
2023-07-24T06:43:19.149Z,4.40
2023-07-24T06:45:47.227Z,4.80
2023-07-24T06:48:15.359Z,4.80
2023-07-24T06:50:43.402Z,5.20
2023-07-24T06:53:11.273Z,4.90
2023-07-24T06:55:39.161Z,4.70
2023-07-24T06:58:07.078Z,4.50
2023-07-24T07:00:35.110Z,4.30
2023-07-24T07:03:03.098Z,4.30
2023-07-24T07:05:33.317Z,4.60
2023-07-24T07:08:01.559Z,4.40
2023-07-24T07:10:29.736Z,4.10
2023-07-24T07:12:57.583Z,4.30
2023-07-24T07:15:25.515Z,5.00
2023-07-24T07:17:53.659Z,4.70
2023-07-24T07:20:21.652Z,4.90
2023-07-24T07:22:51.086Z,4.40
2023-07-24T07:25:19.469Z,5.00
2023-07-24T07:27:47.416Z,4.70
2023-07-24T07:30:15.332Z,5.10
2023-07-24T07:32:43.386Z,5.00
2023-07-24T07:35:11.625Z,3.90
2023-07-24T07:37:39.675Z,3.60
2023-07-24T07:40:08.407Z,3.50
2023-07-24T07:42:38.213Z,3.80
2023-07-24T07:47:35.922Z,3.40
2023-07-24T07:50:04.747Z,3.40
2023-07-24T07:52:32.960Z,3.50
2023-07-24T07:55:01.090Z,3.10
2023-07-24T07:57:29.537Z,3.70
2023-07-24T07:59:57.724Z,3.40
2023-07-24T08:02:25.812Z,3.40
2023-07-24T08:04:54.035Z,3.20
2023-07-24T08:07:22.195Z,3.50
2023-07-24T08:09:50.278Z,3.70
2023-07-24T08:12:18.286Z,3.30
2023-07-24T08:14:46.272Z,3.60
2023-07-24T08:17:14.490Z,3.30
2023-07-24T08:19:42.856Z,3.10
2023-07-24T08:22:11.922Z,3.40
2023-07-24T08:24:40.138Z,3.20
2023-07-24T08:27:08.109Z,3.30
2023-07-24T08:29:37.072Z,3.10
2023-07-24T08:32:06.659Z,3.50
2023-07-24T08:34:36.519Z,2.70
2023-07-24T08:37:05.358Z,2.80
2023-07-24T08:39:33.430Z,3.10
2023-07-24T08:42:08.730Z,3.40
2023-07-24T08:44:38.342Z,3.10
2023-07-24T08:47:10.600Z,3.10
2023-07-24T08:49:43.589Z,3.10
2023-07-24T08:52:23.170Z,3.20
2023-07-24T08:55:02.712Z,2.70
2023-07-24T08:57:30.781Z,2.50
2023-07-24T08:59:59.785Z,2.60
2023-07-24T09:02:27.811Z,2.60
2023-07-24T09:04:56.004Z,2.60
2023-07-24T09:07:24.058Z,2.50
2023-07-24T09:09:52.071Z,3.10
2023-07-24T09:12:20.192Z,2.60
2023-07-24T09:14:48.295Z,2.50
2023-07-24T09:17:16.397Z,2.90
2023-07-24T09:19:45.152Z,2.70
2023-07-24T09:22:17.701Z,2.90
2023-07-24T09:24:55.380Z,2.20
2023-07-24T09:27:29.787Z,2.50
2023-07-24T09:29:58.076Z,2.60
2023-07-24T09:32:28.463Z,2.40
2023-07-24T09:34:56.604Z,2.30
2023-07-24T09:37:26.351Z,2.50
2023-07-24T09:39:54.768Z,2.70
2023-07-24T09:42:30.458Z,2.50
2023-07-24T09:44:58.717Z,2.20
2023-07-24T09:47:51.953Z,2.60
2023-07-24T09:50:14.923Z,2.20
2023-07-24T09:52:43.374Z,2.50
2023-07-24T09:55:31.698Z,2.30
2023-07-24T09:58:01.655Z,2.20
2023-07-24T10:00:32.221Z,2.00
2023-07-24T10:03:01.182Z,2.40
2023-07-24T10:05:30.642Z,2.30
2023-07-24T10:07:59.793Z,2.50
2023-07-24T10:10:30.456Z,2.40
2023-07-24T10:12:59.367Z,3.20
2023-07-24T10:15:27.704Z,3.00
2023-07-24T10:18:06.219Z,2.40
2023-07-24T10:20:36.453Z,2.50
2023-07-24T10:23:05.016Z,2.30
2023-07-24T10:25:35.292Z,2.40
2023-07-24T10:28:08.971Z,2.40
2023-07-24T10:30:38.193Z,2.40
2023-07-24T10:33:09.549Z,2.60
2023-07-24T10:35:47.229Z,2.50
2023-07-24T10:38:17.400Z,2.60
2023-07-24T10:40:52.530Z,2.60
2023-07-24T10:43:25.703Z,2.20
2023-07-24T10:45:55.636Z,2.40
2023-07-24T10:48:27.149Z,3.00
2023-07-24T10:50:55.594Z,2.10
2023-07-24T10:53:24.417Z,2.30
2023-07-24T10:55:53.311Z,2.60
2023-07-24T10:58:26.383Z,2.40
2023-07-24T11:00:54.830Z,2.70
2023-07-24T11:03:23.291Z,2.40
2023-07-24T11:05:51.320Z,2.50
2023-07-24T11:08:21.451Z,2.60
2023-07-24T11:10:51.356Z,2.50
2023-07-24T11:13:21.131Z,2.60
2023-07-24T11:15:50.347Z,2.70
2023-07-24T11:18:21.676Z,2.90
2023-07-24T11:20:55.377Z,2.10
2023-07-24T11:23:26.620Z,3.00
2023-07-24T11:25:55.694Z,2.90
2023-07-24T11:28:23.780Z,3.50
2023-07-24T11:30:52.871Z,2.50
2023-07-24T11:33:22.459Z,2.80
2023-07-24T11:35:50.465Z,3.00
2023-07-24T11:38:18.406Z,2.90
2023-07-24T11:40:46.540Z,3.00
2023-07-24T11:43:22.792Z,2.80
2023-07-24T11:45:53.389Z,2.80
2023-07-24T11:48:24.349Z,3.30
2023-07-24T11:53:31.991Z,3.40
2023-07-24T11:56:02.242Z,3.20
2023-07-24T11:58:31.102Z,3.40
2023-07-24T12:00:59.252Z,3.20
2023-07-24T12:03:29.821Z,3.50
2023-07-24T12:05:58.216Z,3.40
2023-07-24T12:08:34.904Z,3.30
2023-07-24T12:11:03.639Z,3.70
2023-07-24T12:13:33.369Z,3.60
2023-07-24T12:16:01.505Z,3.30
2023-07-24T12:18:29.564Z,3.30
2023-07-24T12:20:57.527Z,3.50
2023-07-24T12:23:25.722Z,3.10
2023-07-24T12:25:53.942Z,3.60
2023-07-24T12:28:22.070Z,4.00
2023-07-24T12:30:50.335Z,4.50
2023-07-24T12:33:18.911Z,3.60
2023-07-24T12:35:46.918Z,3.80
2023-07-24T12:38:15.609Z,3.50
2023-07-24T12:40:43.791Z,3.40
2023-07-24T12:43:12.087Z,4.10
2023-07-24T12:45:40.320Z,3.80
2023-07-24T12:48:08.407Z,4.10
2023-07-24T12:50:36.473Z,4.10
2023-07-24T12:53:05.897Z,5.20
2023-07-24T12:55:38.324Z,4.50
2023-07-24T12:58:06.403Z,4.20
2023-07-24T13:00:34.525Z,3.70
2023-07-24T13:03:02.690Z,4.60
2023-07-24T13:05:32.074Z,4.40
2023-07-24T13:08:00.323Z,4.20
2023-07-24T13:10:28.234Z,4.30
2023-07-24T13:12:56.853Z,3.70
2023-07-24T13:15:25.278Z,4.00
2023-07-24T13:17:53.359Z,3.90
2023-07-24T13:20:21.513Z,3.90
2023-07-24T13:22:49.981Z,3.90
2023-07-24T13:25:18.280Z,4.10
2023-07-24T13:27:46.362Z,4.30
2023-07-24T13:30:14.314Z,4.00
2023-07-24T13:32:42.700Z,4.00
2023-07-24T13:35:10.646Z,4.00
2023-07-24T13:37:38.741Z,4.10
2023-07-24T13:40:07.473Z,4.00
2023-07-24T13:42:35.693Z,4.20
2023-07-24T13:45:04.367Z,4.40
2023-07-24T13:47:32.417Z,3.50
2023-07-24T13:50:02.569Z,4.10
2023-07-24T13:52:31.085Z,4.60
2023-07-24T13:54:59.053Z,4.50
2023-07-24T13:57:27.459Z,4.60
2023-07-24T13:59:55.616Z,4.50
2023-07-24T14:02:23.509Z,4.20
2023-07-24T14:04:51.763Z,4.10
2023-07-24T14:07:19.908Z,4.30
2023-07-24T14:09:47.838Z,3.80
2023-07-24T14:12:16.112Z,4.20
2023-07-24T14:14:44.531Z,3.90
2023-07-24T14:17:12.766Z,4.20
2023-07-24T14:19:40.678Z,4.40
2023-07-24T14:22:08.575Z,4.60
2023-07-24T14:24:36.693Z,4.50
2023-07-24T14:27:05.104Z,4.70
2023-07-24T14:29:33.222Z,4.30
2023-07-24T14:32:01.338Z,4.40
2023-07-24T14:34:29.368Z,4.70
2023-07-24T14:36:58.325Z,4.90
2023-07-24T14:39:26.838Z,4.80
2023-07-24T14:41:55.057Z,4.50
2023-07-24T14:44:23.189Z,4.70
2023-07-24T14:46:51.291Z,5.40
2023-07-24T14:49:19.222Z,4.70
2023-07-24T14:51:47.308Z,5.20
2023-07-24T14:54:15.417Z,5.30
2023-07-24T14:56:53.854Z,4.40
2023-07-24T14:59:27.474Z,5.00
2023-07-24T15:01:55.705Z,5.00
2023-07-24T15:04:24.353Z,4.50
2023-07-24T15:06:52.974Z,4.70
2023-07-24T15:09:20.936Z,4.90
2023-07-24T15:11:48.997Z,5.00
2023-07-24T15:14:17.278Z,4.50
2023-07-24T15:16:46.591Z,5.10
2023-07-24T15:19:14.605Z,5.20
2023-07-24T15:21:42.678Z,4.70
2023-07-24T15:24:11.753Z,4.50
2023-07-24T15:26:39.767Z,5.20
2023-07-24T15:29:07.780Z,5.30
2023-07-24T15:31:38.132Z,4.80
2023-07-24T15:34:06.821Z,5.30
2023-07-24T15:36:38.513Z,5.40
2023-07-24T15:39:06.939Z,4.90
2023-07-24T15:41:35.621Z,5.30
2023-07-24T15:44:03.683Z,5.40
2023-07-24T15:46:33.222Z,4.90
2023-07-24T15:49:01.572Z,5.10
2023-07-24T15:51:31.119Z,5.20
2023-07-24T15:53:59.430Z,4.80
2023-07-24T15:56:27.440Z,5.40
2023-07-24T15:58:56.132Z,5.60
2023-07-24T16:01:24.503Z,5.10
2023-07-24T16:03:52.609Z,5.70
2023-07-24T16:06:20.640Z,5.00
2023-07-24T16:08:48.706Z,5.20
2023-07-24T16:11:16.915Z,4.90
2023-07-24T16:13:45.151Z,5.00
2023-07-24T16:16:15.244Z,5.50
2023-07-24T16:18:44.687Z,5.10
2023-07-24T16:21:12.761Z,5.10
2023-07-24T16:23:40.820Z,5.20
2023-07-24T16:26:08.717Z,5.70
2023-07-24T16:28:36.914Z,5.30
2023-07-24T16:31:04.885Z,4.60
2023-07-24T16:33:33.074Z,5.60
2023-07-24T16:36:01.179Z,5.80
2023-07-24T16:38:29.102Z,5.40
2023-07-24T16:40:57.271Z,5.50
2023-07-24T16:43:25.515Z,5.60
2023-07-24T16:48:24.726Z,6.20
2023-07-24T16:50:53.060Z,6.10
2023-07-24T16:53:21.035Z,5.90
2023-07-24T16:55:49.143Z,5.90
2023-07-24T16:58:17.773Z,6.40
2023-07-24T17:00:46.316Z,5.60
2023-07-24T17:03:14.579Z,7.00
2023-07-24T17:05:42.742Z,5.80
2023-07-24T17:08:10.692Z,6.60
2023-07-24T17:10:50.063Z,6.40
2023-07-24T17:13:18.094Z,6.70
2023-07-24T17:15:46.489Z,7.10
2023-07-24T17:18:14.468Z,6.70
2023-07-24T17:20:42.413Z,6.00
2023-07-24T17:23:10.452Z,6.80
2023-07-24T17:25:40.842Z,6.80
2023-07-24T17:28:09.082Z,6.80
2023-07-24T17:30:37.953Z,6.30
2023-07-24T17:33:06.119Z,7.20
2023-07-24T17:35:34.500Z,7.20
2023-07-24T17:38:02.556Z,7.00
2023-07-24T17:40:30.610Z,5.90
2023-07-24T17:42:58.557Z,5.70
2023-07-24T17:45:26.832Z,5.50
2023-07-24T17:47:54.911Z,6.00
2023-07-24T17:50:24.339Z,6.10
2023-07-24T17:52:52.505Z,6.60
2023-07-24T17:55:20.620Z,6.60
2023-07-24T17:57:50.987Z,6.70
2023-07-24T18:00:20.139Z,6.30
2023-07-24T18:02:48.406Z,6.90
2023-07-24T18:05:16.405Z,6.30
2023-07-24T18:07:44.445Z,6.80
2023-07-24T18:10:12.677Z,7.30
2023-07-24T18:12:41.434Z,7.00
2023-07-24T18:15:10.050Z,7.30
2023-07-24T18:17:38.355Z,7.90
2023-07-24T18:20:07.607Z,7.30
2023-07-24T18:22:36.825Z,7.80
2023-07-24T18:25:05.381Z,7.80
2023-07-24T18:27:34.789Z,7.10
2023-07-24T18:30:02.985Z,7.60
2023-07-24T18:32:30.977Z,8.20
2023-07-24T18:34:59.059Z,7.40
2023-07-24T18:37:26.997Z,8.00
2023-07-24T18:39:54.910Z,7.30
2023-07-24T18:42:22.987Z,7.80
2023-07-24T18:44:51.166Z,7.20
2023-07-24T18:47:21.050Z,7.70
2023-07-24T18:49:49.171Z,7.50
2023-07-24T18:52:17.206Z,7.60
2023-07-24T18:54:45.137Z,7.40
2023-07-24T18:57:13.008Z,7.00
2023-07-24T18:59:41.269Z,7.50
2023-07-24T19:02:10.039Z,7.90
2023-07-24T19:04:38.620Z,7.60
2023-07-24T19:07:06.722Z,7.20
2023-07-24T19:09:34.808Z,7.10
2023-07-24T19:12:03.020Z,7.10
2023-07-24T19:14:31.007Z,6.60
2023-07-24T19:16:59.125Z,7.40
2023-07-24T19:19:27.279Z,6.80
2023-07-24T19:21:55.367Z,6.80
2023-07-24T19:24:23.416Z,7.40
2023-07-24T19:26:51.462Z,7.20
2023-07-24T19:29:19.642Z,7.10
2023-07-24T19:31:48.428Z,6.80
2023-07-24T19:34:16.636Z,6.90
2023-07-24T19:36:44.710Z,7.40
2023-07-24T19:39:12.721Z,7.50
2023-07-24T19:41:40.647Z,7.40
2023-07-24T19:44:08.799Z,7.60
2023-07-24T19:46:36.863Z,7.20
2023-07-24T19:49:04.905Z,7.20
2023-07-24T19:51:33.187Z,7.20
2023-07-24T19:54:01.524Z,7.70
2023-07-24T19:56:29.615Z,7.70
2023-07-24T19:58:57.520Z,7.80
2023-07-24T20:01:27.180Z,6.80
2023-07-24T20:03:55.425Z,7.30
2023-07-24T20:06:23.610Z,6.90
2023-07-24T20:08:51.812Z,7.30
2023-07-24T20:11:19.914Z,7.40
2023-07-24T20:13:47.860Z,7.80
2023-07-24T20:16:20.273Z,8.00
2023-07-24T20:18:48.523Z,7.70
2023-07-24T20:21:16.525Z,8.00
2023-07-24T20:23:44.453Z,7.00
2023-07-24T20:26:12.451Z,6.90
2023-07-24T20:28:40.516Z,7.20
2023-07-24T20:31:08.863Z,8.20
2023-07-24T20:33:36.839Z,7.10
2023-07-24T20:36:09.650Z,7.80
2023-07-24T20:38:38.361Z,7.80
2023-07-24T20:41:06.441Z,7.20
2023-07-24T20:43:34.458Z,7.20
2023-07-24T20:46:12.864Z,7.20
2023-07-24T20:48:41.766Z,7.70
2023-07-24T20:51:17.857Z,8.10
2023-07-24T20:53:46.282Z,8.00
2023-07-24T20:56:14.791Z,7.80
2023-07-24T20:58:43.051Z,8.00
2023-07-24T21:01:11.092Z,8.50
2023-07-24T21:03:40.176Z,7.40
2023-07-24T21:06:08.250Z,8.10
2023-07-24T21:08:38.270Z,7.70
2023-07-24T21:11:06.857Z,7.30
2023-07-24T21:13:35.088Z,7.70
2023-07-24T21:16:06.267Z,7.80
2023-07-24T21:21:07.125Z,8.30
2023-07-24T21:23:36.940Z,7.90
2023-07-24T21:26:04.923Z,9.50
2023-07-24T21:31:31.521Z,7.10
2023-07-24T21:34:02.145Z,8.00
2023-07-24T21:36:30.260Z,7.50
2023-07-24T21:38:58.167Z,7.40
2023-07-24T21:41:28.222Z,7.50
2023-07-24T21:43:57.917Z,7.00
2023-07-24T21:46:29.627Z,6.70
2023-07-24T21:48:58.040Z,7.40
2023-07-24T21:51:29.319Z,7.20
2023-07-24T21:53:57.594Z,7.50
2023-07-24T21:56:25.603Z,6.50
2023-07-24T21:58:53.699Z,7.40
2023-07-24T22:01:22.218Z,8.00
2023-07-24T22:03:50.189Z,6.80
2023-07-24T22:06:18.445Z,8.00
2023-07-24T22:08:46.613Z,7.70
2023-07-24T22:11:16.028Z,8.40
2023-07-24T22:13:44.708Z,7.80
2023-07-24T22:16:12.992Z,8.50
2023-07-24T22:18:41.185Z,7.70
2023-07-24T22:21:09.122Z,8.30
2023-07-24T22:23:37.196Z,9.20
2023-07-24T22:26:05.207Z,8.40
2023-07-24T22:28:33.363Z,8.30
2023-07-24T22:31:08.343Z,9.00
2023-07-24T22:33:36.687Z,8.30
2023-07-24T22:36:05.580Z,7.90
2023-07-24T22:38:33.602Z,8.60
2023-07-24T22:41:10.190Z,9.10
2023-07-24T22:43:38.263Z,8.60
2023-07-24T22:46:06.863Z,8.30
2023-07-24T22:48:37.734Z,8.40
2023-07-24T22:51:07.909Z,8.00
2023-07-24T22:53:38.101Z,7.40
2023-07-24T22:56:10.043Z,8.20
2023-07-24T22:58:58.183Z,7.60
2023-07-24T23:01:28.040Z,8.00
2023-07-24T23:03:56.186Z,6.90
2023-07-24T23:06:24.984Z,6.50
2023-07-24T23:08:52.956Z,7.60
2023-07-24T23:11:23.525Z,7.40
2023-07-24T23:13:51.482Z,7.40
2023-07-24T23:16:19.672Z,7.30
2023-07-24T23:18:47.957Z,7.90
2023-07-24T23:21:16.096Z,8.00
2023-07-24T23:23:44.268Z,8.20
2023-07-24T23:26:12.265Z,8.10
2023-07-24T23:28:40.920Z,8.00
2023-07-24T23:31:09.327Z,9.10
2023-07-24T23:33:38.687Z,8.20
2023-07-24T23:36:10.357Z,8.20
2023-07-24T23:38:38.442Z,8.90
2023-07-24T23:41:10.342Z,7.80
2023-07-24T23:46:17.196Z,8.00
2023-07-24T23:48:45.468Z,7.30
2023-07-24T23:51:15.662Z,7.40
2023-07-24T23:53:43.985Z,8.30
2023-07-24T23:56:12.239Z,8.60
2023-07-24T23:58:40.728Z,7.30
